createdAt,value
2019-03-04T00:00:37.627Z,8.5
2019-03-04T00:06:32.614Z,6.79
2019-03-04T00:12:27.652Z,8.03
2019-03-04T00:18:22.586Z,6.91
2019-03-04T00:24:17.620Z,7.84
2019-03-04T00:30:12.623Z,7.79
2019-03-04T00:36:07.654Z,6.76
2019-03-04T00:42:02.676Z,8.41
2019-03-04T00:47:57.625Z,6.22
2019-03-04T00:53:52.611Z,8.79
2019-03-04T00:59:47.603Z,7.46
2019-03-04T01:05:42.603Z,7.52
2019-03-04T01:11:37.601Z,6.64
2019-03-04T01:17:32.631Z,6.77
2019-03-04T01:23:27.612Z,10.15
2019-03-04T01:29:22.660Z,6.33
2019-03-04T01:35:17.631Z,8.72
2019-03-04T01:41:12.621Z,6.73
2019-03-04T01:47:07.639Z,7.65
2019-03-04T01:53:02.651Z,13.56
2019-03-04T01:58:57.656Z,6.89
2019-03-04T02:04:52.621Z,6.78
2019-03-04T02:10:47.638Z,8.17
2019-03-04T02:16:42.690Z,6.53
2019-03-04T02:22:37.630Z,9.64
2019-03-04T02:28:32.629Z,8.31
2019-03-04T02:34:27.655Z,10.37
2019-03-04T02:40:22.662Z,10.42
2019-03-04T02:46:17.640Z,8.87
2019-03-04T02:52:12.667Z,8.14
2019-03-04T02:58:07.644Z,8.39
2019-03-04T03:04:02.647Z,9.36
2019-03-04T03:09:57.644Z,10.41
2019-03-04T03:15:52.673Z,9.45
2019-03-04T03:21:47.637Z,8.86
2019-03-04T03:27:42.643Z,8.98
2019-03-04T03:33:37.652Z,11.02
2019-03-04T03:39:32.721Z,10.33
2019-03-04T03:45:27.654Z,11.64
2019-03-04T03:51:22.636Z,11.18
2019-03-04T03:57:17.633Z,11.61
2019-03-04T04:03:12.655Z,12.12
2019-03-04T04:09:07.665Z,12.42
2019-03-04T04:15:02.679Z,12.39
2019-03-04T04:20:57.668Z,12.31
2019-03-04T04:26:52.639Z,11.68
2019-03-04T04:32:47.715Z,10.97
2019-03-04T04:38:42.670Z,12.4
2019-03-04T04:44:37.652Z,12.14
2019-03-04T04:50:32.745Z,12.13
2019-03-04T04:56:27.650Z,12.24
2019-03-04T05:02:22.677Z,12.07
2019-03-04T05:08:17.652Z,13.21
2019-03-04T05:14:12.676Z,12.35
2019-03-04T05:20:07.658Z,14
2019-03-04T05:26:02.662Z,11.79
2019-03-04T05:31:57.648Z,11.7
2019-03-04T05:37:52.662Z,12.5
2019-03-04T05:43:47.674Z,13.45
2019-03-04T05:49:42.657Z,11.14
2019-03-04T05:55:37.671Z,12.54
2019-03-04T06:01:32.667Z,11.6
2019-03-04T06:07:27.649Z,14.88
2019-03-04T06:13:22.681Z,11.68
2019-03-04T06:19:17.710Z,13.68
2019-03-04T06:25:12.664Z,12.2
2019-03-04T06:31:07.692Z,16.59
2019-03-04T06:37:02.673Z,13.46
2019-03-04T06:42:57.697Z,13.04
2019-03-04T06:48:52.693Z,10.86
2019-03-04T06:54:47.682Z,12.67
2019-03-04T07:00:42.692Z,11.44
2019-03-04T07:06:37.668Z,12.2
2019-03-04T07:12:32.748Z,11.65
2019-03-04T07:18:27.700Z,13.07
2019-03-04T07:24:22.685Z,15.52
2019-03-04T07:30:17.696Z,14.09
2019-03-04T07:36:12.691Z,15.54
2019-03-04T07:42:07.707Z,15.03
2019-03-04T07:48:02.673Z,13.23
2019-03-04T07:53:57.706Z,14.05
2019-03-04T07:59:52.691Z,13.77
2019-03-04T08:05:47.690Z,16.12
2019-03-04T08:11:42.689Z,13.46
2019-03-04T08:17:37.664Z,11.2
2019-03-04T08:23:32.668Z,10.6
2019-03-04T08:29:27.696Z,10.48
2019-03-04T08:35:22.697Z,11.13
2019-03-04T08:41:17.672Z,10.12
2019-03-04T08:47:12.715Z,8.85
2019-03-04T08:53:07.733Z,8.37
2019-03-04T08:59:02.710Z,9.42
2019-03-04T09:04:57.683Z,9.38
2019-03-04T09:10:52.683Z,9.71
2019-03-04T09:16:47.742Z,10.99
2019-03-04T09:22:42.736Z,9.86
2019-03-04T09:28:37.714Z,10.08
2019-03-04T09:34:32.787Z,9.42
2019-03-04T09:40:27.701Z,10.13
2019-03-04T09:46:22.713Z,8.24
2019-03-04T09:52:17.684Z,8.2
2019-03-04T09:58:12.700Z,8.02
2019-03-04T10:04:07.699Z,7.79
2019-03-04T10:10:02.697Z,6.79
2019-03-04T10:15:57.730Z,6.87
2019-03-04T10:21:52.756Z,7.84
2019-03-04T10:27:47.696Z,6.34
2019-03-04T10:33:42.715Z,6.04
2019-03-04T10:39:37.702Z,5.27
2019-03-04T10:45:32.754Z,5.01
2019-03-04T10:51:27.734Z,5.08
2019-03-04T10:57:22.746Z,4
2019-03-04T11:03:17.729Z,4.26
2019-03-04T11:09:12.784Z,2.81
2019-03-04T11:15:07.735Z,3.15
2019-03-04T11:21:02.763Z,2.61
2019-03-04T11:27:00.179Z,2.77
2019-03-04T11:32:52.710Z,2.59
2019-03-04T11:38:47.719Z,2.33
2019-03-04T11:44:42.720Z,2.87
2019-03-04T11:50:37.741Z,3.49
2019-03-04T11:56:32.731Z,2.98
2019-03-04T12:02:28.043Z,4.13
2019-03-04T12:08:22.765Z,3.13
2019-03-04T12:14:17.762Z,3.53
2019-03-04T12:20:12.755Z,3.57
2019-03-04T12:26:07.802Z,3.74
2019-03-04T12:32:02.749Z,4.18
2019-03-04T12:37:57.739Z,3.59
2019-03-04T12:43:52.741Z,3.61
2019-03-04T12:49:47.778Z,4.05
2019-03-04T12:55:42.753Z,3.98
2019-03-04T13:01:37.826Z,4.03
2019-03-04T13:07:32.742Z,3.83
2019-03-04T13:13:29.738Z,3.65
2019-03-04T13:19:22.760Z,4.19
2019-03-04T13:25:17.746Z,3.3
2019-03-04T13:31:12.772Z,4.11
2019-03-04T13:37:07.823Z,4.95
2019-03-04T13:43:02.763Z,4.39
2019-03-04T13:48:57.757Z,3.3
2019-03-04T13:54:52.799Z,3.68
2019-03-04T14:00:51.489Z,3.08
2019-03-04T14:06:42.794Z,4.18
2019-03-04T14:12:37.775Z,3.65
2019-03-04T14:18:32.789Z,3.49
2019-03-04T14:24:27.794Z,3.58
2019-03-04T14:30:22.871Z,3.96
2019-03-04T14:36:17.787Z,4.1
2019-03-04T14:42:12.822Z,4.08
2019-03-04T14:48:07.824Z,4.02
2019-03-04T14:54:02.811Z,4.96
2019-03-04T14:59:57.784Z,5.19
2019-03-04T15:05:52.819Z,4.6
2019-03-04T15:11:47.807Z,4.67
2019-03-04T15:17:42.793Z,4.31
2019-03-04T15:23:37.801Z,4.31
2019-03-04T15:29:32.823Z,4.17
2019-03-04T15:35:27.795Z,4.63
2019-03-04T15:41:22.828Z,3.89
2019-03-04T15:47:17.848Z,3.63
2019-03-04T15:53:12.802Z,2.99
2019-03-04T15:59:07.815Z,2.34
2019-03-04T16:05:02.811Z,3.47
2019-03-04T16:10:57.821Z,3.29
2019-03-04T16:16:52.831Z,2.82
2019-03-04T16:22:47.881Z,2.8
2019-03-04T16:28:42.811Z,3.6
2019-03-04T16:34:37.821Z,2.87
2019-03-04T16:40:32.826Z,2.97
2019-03-04T16:46:27.954Z,3.71
2019-03-04T16:52:22.821Z,3.32
2019-03-04T16:58:17.832Z,3.69
2019-03-04T17:04:12.820Z,2.78
2019-03-04T17:10:07.866Z,3.11
2019-03-04T17:16:02.830Z,3.36
2019-03-04T17:21:57.882Z,3.82
2019-03-04T17:27:52.858Z,3.43
2019-03-04T17:33:47.905Z,3.42
2019-03-04T17:39:42.927Z,3.5
2019-03-04T17:45:37.882Z,3.91
2019-03-04T17:51:32.844Z,3.99
2019-03-04T17:57:27.898Z,3.92
2019-03-04T18:03:22.905Z,4.06
2019-03-04T18:09:17.848Z,4.3
2019-03-04T18:15:12.873Z,5.22
2019-03-04T18:21:07.861Z,4.63
2019-03-04T18:27:02.880Z,5.24
2019-03-04T18:32:57.860Z,5.73
2019-03-04T18:38:52.876Z,4.78
2019-03-04T18:44:47.916Z,5.64
2019-03-04T18:50:42.905Z,5.97
2019-03-04T18:56:37.932Z,5.6
2019-03-04T19:02:32.846Z,6.77
2019-03-04T19:08:27.857Z,6.52
2019-03-04T19:14:22.886Z,6.54
2019-03-04T19:20:17.885Z,6.72
2019-03-04T19:26:12.903Z,7.74
2019-03-04T19:32:07.918Z,8.6
2019-03-04T19:38:02.904Z,8.82
2019-03-04T19:43:57.882Z,9.14
2019-03-04T19:49:52.883Z,9.02
2019-03-04T19:55:47.958Z,9.43
2019-03-04T20:01:42.915Z,9.36
2019-03-04T20:07:37.937Z,10.22
2019-03-04T20:13:32.925Z,8.15
2019-03-04T20:19:27.902Z,8.16
2019-03-04T20:25:22.911Z,8.76
2019-03-04T20:31:17.946Z,9.23
2019-03-04T20:37:12.931Z,8.98
2019-03-04T20:43:07.981Z,9.04
2019-03-04T20:49:02.914Z,10.07
2019-03-04T20:54:57.911Z,7.85
2019-03-04T21:00:52.914Z,9.13
2019-03-04T21:06:47.912Z,9.53
2019-03-04T21:12:42.941Z,9.54
2019-03-04T21:18:37.929Z,8.97
2019-03-04T21:24:32.905Z,8.69
2019-03-04T21:30:27.946Z,8.41
2019-03-04T21:36:22.975Z,8.9
2019-03-04T21:42:17.909Z,8.56
2019-03-04T21:48:12.931Z,8.14
2019-03-04T21:54:08.847Z,7.97
2019-03-04T22:00:02.946Z,7.99
2019-03-04T22:05:57.934Z,7.73
2019-03-04T22:17:47.957Z,7.35
2019-03-04T22:17:47.978Z,5.79
2019-03-04T22:23:42.922Z,6.79
2019-03-04T22:29:37.928Z,7.08
2019-03-04T22:35:32.975Z,6.95
2019-03-04T22:41:27.942Z,5.79
2019-03-04T22:47:22.951Z,6.3
2019-03-04T22:53:17.998Z,5.84
2019-03-04T22:59:12.957Z,10.87
2019-03-04T23:05:07.942Z,6.93
2019-03-04T23:11:02.949Z,6.29
2019-03-04T23:17:00.049Z,5.46
2019-03-04T23:22:52.978Z,5.14
2019-03-04T23:28:47.950Z,5.34
2019-03-04T23:34:42.990Z,6.38
2019-03-04T23:40:37.988Z,6.17
2019-03-04T23:46:32.982Z,7.13
2019-03-04T23:52:27.970Z,5.44
2019-03-04T23:58:22.995Z,5.67
